createdAt,value
2023-01-29T00:01:16.290Z,97723.06
2023-01-29T00:03:21.446Z,97728.88
2023-01-29T00:05:28.177Z,97730.69
2023-01-29T00:07:33.181Z,97731.50
2023-01-29T00:09:37.873Z,97732.31
2023-01-29T00:11:43.134Z,97729.69
2023-01-29T00:13:47.888Z,97733.09
2023-01-29T00:15:57.383Z,97738.56
2023-01-29T00:18:04.639Z,97738.56
2023-01-29T00:20:10.326Z,97740.94
2023-01-29T00:22:15.137Z,97735.50
2023-01-29T00:24:19.904Z,97737.31
2023-01-29T00:26:24.564Z,97744.16
2023-01-29T00:28:29.976Z,97734.50
2023-01-29T00:30:34.618Z,97736.28
2023-01-29T00:32:39.334Z,97737.31
2023-01-29T00:34:46.716Z,97729.09
2023-01-29T00:37:04.981Z,97731.72
2023-01-29T00:39:11.059Z,97728.31
2023-01-29T00:41:30.289Z,97728.31
2023-01-29T00:43:47.395Z,97718.84
2023-01-29T00:45:52.183Z,97723.72
2023-01-29T00:47:57.061Z,97719.50
2023-01-29T00:50:05.082Z,97714.69
2023-01-29T00:52:27.746Z,97712.88
2023-01-29T00:54:33.280Z,97718.53
2023-01-29T00:56:39.590Z,97709.88
2023-01-29T00:58:44.264Z,97721.38
2023-01-29T01:00:49.023Z,97724.00
2023-01-29T01:03:06.033Z,97722.97
2023-01-29T01:05:18.248Z,97723.78
2023-01-29T01:07:23.664Z,97725.59
2023-01-29T01:09:40.915Z,97722.75
2023-01-29T01:11:45.679Z,97719.53
2023-01-29T01:13:51.307Z,97721.94
2023-01-29T01:15:57.911Z,97727.19
2023-01-29T01:18:04.635Z,97727.19
2023-01-29T01:20:11.017Z,97734.03
2023-01-29T01:22:18.614Z,97727.19
2023-01-29T01:24:23.496Z,97726.16
2023-01-29T01:26:28.922Z,97727.78
2023-01-29T01:28:35.898Z,97739.03
2023-01-29T01:30:40.569Z,97732.19
2023-01-29T01:32:46.064Z,97739.25
2023-01-29T01:34:50.677Z,97735.25
2023-01-29T01:36:55.969Z,97736.28
2023-01-29T01:39:03.763Z,97733.06
2023-01-29T01:41:11.460Z,97734.69
2023-01-29T01:43:16.406Z,97731.84
2023-01-29T01:45:23.408Z,97730.22
2023-01-29T01:47:32.865Z,97738.53
2023-01-29T01:49:37.590Z,97731.50
2023-01-29T01:51:46.391Z,97719.41
2023-01-29T01:53:58.627Z,97720.81
2023-01-29T01:56:10.511Z,97718.41
2023-01-29T01:58:21.100Z,97720.41
2023-01-29T02:00:28.903Z,97727.47
2023-01-29T02:02:46.157Z,97716.19
2023-01-29T02:05:04.775Z,97719.19
2023-01-29T02:07:23.993Z,97724.00
2023-01-29T02:09:36.339Z,97730.41
2023-01-29T02:11:44.098Z,97725.72
2023-01-29T02:13:53.724Z,97732.38
2023-01-29T02:16:03.409Z,97718.84
2023-01-29T02:18:08.335Z,97723.84
2023-01-29T02:20:24.304Z,97724.66
2023-01-29T02:22:56.511Z,97728.50
2023-01-29T02:25:26.135Z,97725.28
2023-01-29T02:27:39.166Z,97724.94
2023-01-29T02:30:05.887Z,97726.97
2023-01-29T02:32:23.214Z,97714.47
2023-01-29T02:34:52.023Z,97710.63
2023-01-29T02:37:05.425Z,97706.97
2023-01-29T02:39:15.933Z,97710.47
2023-01-29T02:41:29.400Z,97707.19
2023-01-29T02:43:39.766Z,97704.13
2023-01-29T02:45:53.520Z,97705.97
2023-01-29T02:48:01.472Z,97709.38
2023-01-29T02:50:16.255Z,97705.16
2023-01-29T02:52:26.577Z,97710.41
2023-01-29T02:54:37.765Z,97710.41
2023-01-29T02:56:51.163Z,97711.41
2023-01-29T02:59:00.352Z,97709.06
2023-01-29T03:01:12.995Z,97703.41
2023-01-29T03:03:23.407Z,97707.84
2023-01-29T03:05:35.340Z,97716.31
2023-01-29T03:07:45.080Z,97719.50
2023-01-29T03:10:01.570Z,97716.88
2023-01-29T03:12:20.069Z,97717.88
2023-01-29T03:14:53.089Z,97721.09
2023-01-29T03:17:01.593Z,97715.88
2023-01-29T03:19:11.380Z,97718.25
2023-01-29T03:21:33.572Z,97720.66
2023-01-29T03:23:52.238Z,97717.22
2023-01-29T03:26:14.742Z,97720.88
2023-01-29T03:28:34.306Z,97716.88
2023-01-29T03:30:56.407Z,97716.31
2023-01-29T03:33:26.832Z,97719.31
2023-01-29T03:35:36.582Z,97711.47
2023-01-29T03:37:46.488Z,97700.44
2023-01-29T03:39:51.754Z,97703.63
2023-01-29T03:42:01.799Z,97700.22
2023-01-29T03:44:17.504Z,97696.81
2023-01-29T03:46:31.512Z,97689.75
2023-01-29T03:48:44.465Z,97689.75
2023-01-29T03:50:59.082Z,97690.53
2023-01-29T03:53:11.041Z,97685.06
2023-01-29T03:55:20.329Z,97694.53
2023-01-29T03:57:34.580Z,97700.00
2023-01-29T03:59:45.394Z,97698.16
2023-01-29T04:02:16.104Z,97693.16
2023-01-29T04:04:29.558Z,97696.81
2023-01-29T04:06:35.947Z,97698.69
2023-01-29T04:08:57.814Z,97701.88
2023-01-29T04:11:10.256Z,97702.47
2023-01-29T04:13:17.822Z,97699.84
2023-01-29T04:15:26.977Z,97703.84
2023-01-29T04:17:38.400Z,97709.88
2023-01-29T04:19:58.662Z,97707.28
2023-01-29T04:22:10.033Z,97702.03
2023-01-29T04:24:16.467Z,97702.59
2023-01-29T04:26:56.908Z,97706.22
2023-01-29T04:29:21.710Z,97708.06
2023-01-29T04:31:35.535Z,97705.44
2023-01-29T04:33:45.693Z,97711.56
2023-01-29T04:36:06.183Z,97705.88
2023-01-29T04:38:16.039Z,97707.28
2023-01-29T04:40:26.723Z,97708.63
2023-01-29T04:42:35.115Z,97707.63
2023-01-29T04:44:45.142Z,97700.59
2023-01-29T04:46:55.708Z,97698.97
2023-01-29T04:49:10.669Z,97698.59
2023-01-29T04:51:25.484Z,97699.03
2023-01-29T04:53:38.329Z,97698.03
2023-01-29T04:55:47.848Z,97699.03
2023-01-29T04:57:58.711Z,97700.66
2023-01-29T05:00:10.147Z,97708.50
2023-01-29T05:02:15.948Z,97705.09
2023-01-29T05:04:23.413Z,97705.31
2023-01-29T05:06:33.578Z,97701.09
2023-01-29T05:08:41.576Z,97705.31
2023-01-29T05:10:47.161Z,97709.72
2023-01-29T05:12:56.991Z,97713.97
2023-01-29T05:15:05.359Z,97722.59
2023-01-29T05:17:17.588Z,97718.97
2023-01-29T05:19:22.226Z,97719.53
2023-01-29T05:21:30.512Z,97722.75
2023-01-29T05:23:35.350Z,97721.72
2023-01-29T05:25:40.552Z,97716.50
2023-01-29T05:27:57.764Z,97725.16
2023-01-29T05:30:02.476Z,97728.00
2023-01-29T05:32:07.154Z,97733.22
2023-01-29T05:34:11.954Z,97724.56
2023-01-29T05:36:16.733Z,97725.38
2023-01-29T05:38:25.406Z,97729.00
2023-01-29T05:40:30.031Z,97723.56
2023-01-29T05:42:35.647Z,97727.78
2023-01-29T05:44:40.347Z,97728.00
2023-01-29T05:46:45.231Z,97723.56
2023-01-29T05:48:49.998Z,97721.94
2023-01-29T05:50:54.965Z,97729.81
2023-01-29T05:53:00.427Z,97720.59
2023-01-29T05:55:09.493Z,97714.53
2023-01-29T05:57:14.154Z,97717.97
2023-01-29T05:59:19.472Z,97715.34
2023-01-29T06:01:26.499Z,97719.53
2023-01-29T06:03:32.067Z,97713.53
2023-01-29T06:05:36.797Z,97709.28
2023-01-29T06:07:45.341Z,97717.97
2023-01-29T06:09:50.170Z,97716.94
2023-01-29T06:11:58.393Z,97718.97
2023-01-29T06:14:03.024Z,97723.19
2023-01-29T06:16:08.727Z,97725.59
2023-01-29T06:18:13.431Z,97719.53
2023-01-29T06:20:18.354Z,97721.16
2023-01-29T06:22:23.157Z,97721.94
2023-01-29T06:24:27.857Z,97724.56
2023-01-29T06:26:32.518Z,97724.56
2023-01-29T06:28:40.090Z,97717.75
2023-01-29T06:30:44.812Z,97720.38
2023-01-29T06:32:49.552Z,97722.16
2023-01-29T06:34:54.215Z,97722.38
2023-01-29T06:36:59.089Z,97719.19
2023-01-29T06:39:04.032Z,97719.63
2023-01-29T06:41:13.238Z,97719.03
2023-01-29T06:43:17.896Z,97724.47
2023-01-29T06:45:25.259Z,97724.56
2023-01-29T06:47:31.129Z,97724.78
2023-01-29T06:49:35.823Z,97725.00
2023-01-29T06:51:40.582Z,97725.34
2023-01-29T06:53:46.434Z,97726.53
2023-01-29T06:55:55.011Z,97712.78
2023-01-29T06:57:59.689Z,97715.56
2023-01-29T07:00:04.322Z,97714.09
2023-01-29T07:02:12.221Z,97709.66
2023-01-29T07:04:16.943Z,97716.94
2023-01-29T07:06:22.434Z,97708.50
2023-01-29T07:08:27.726Z,97704.28
2023-01-29T07:10:32.529Z,97694.25
2023-01-29T07:12:37.230Z,97687.63
2023-01-29T07:14:41.955Z,97695.47
2023-01-29T07:16:46.628Z,97684.78
2023-01-29T07:18:54.248Z,97690.22
2023-01-29T07:20:59.150Z,97687.63
2023-01-29T07:23:03.774Z,97691.28
2023-01-29T07:25:10.208Z,97685.81
2023-01-29T07:27:14.951Z,97686.38
2023-01-29T07:29:19.733Z,97680.72
2023-01-29T07:31:24.750Z,97681.31
2023-01-29T07:33:29.557Z,97684.72
2023-01-29T07:35:39.702Z,97684.50
2023-01-29T07:37:44.312Z,97681.66
2023-01-29T07:39:49.384Z,97683.28
2023-01-29T07:41:54.058Z,97689.28
2023-01-29T07:44:00.934Z,97702.16
2023-01-29T07:46:06.162Z,97696.50
2023-01-29T07:48:14.342Z,97693.88
2023-01-29T07:50:19.518Z,97691.63
2023-01-29T07:52:26.909Z,97696.88
2023-01-29T07:54:31.564Z,97705.31
2023-01-29T07:56:36.264Z,97700.06
2023-01-29T07:58:41.035Z,97695.88
2023-01-29T08:00:45.839Z,97698.69
2023-01-29T08:02:50.500Z,97695.25
2023-01-29T08:04:55.241Z,97701.28
2023-01-29T08:07:00.077Z,97705.53
2023-01-29T08:09:08.648Z,97709.97
2023-01-29T08:11:13.341Z,97699.50
2023-01-29T08:13:18.179Z,97707.34
2023-01-29T08:15:22.916Z,97712.81
2023-01-29T08:17:27.658Z,97718.63
2023-01-29T08:19:32.350Z,97719.22
2023-01-29T08:21:37.398Z,97720.78
2023-01-29T08:23:42.036Z,97729.03
2023-01-29T08:25:49.365Z,97725.38
2023-01-29T08:27:54.363Z,97726.19
2023-01-29T08:29:59.085Z,97726.75
2023-01-29T08:32:03.842Z,97724.75
2023-01-29T08:34:08.636Z,97732.59
2023-01-29T08:36:13.725Z,97740.25
2023-01-29T08:38:18.429Z,97744.66
2023-01-29T08:40:23.067Z,97748.66
2023-01-29T08:42:30.558Z,97746.84
2023-01-29T08:44:35.386Z,97747.44
2023-01-29T08:46:40.824Z,97754.06
2023-01-29T08:48:45.474Z,97755.66
2023-01-29T08:50:50.224Z,97758.03
2023-01-29T08:52:54.954Z,97765.13
2023-01-29T08:54:59.757Z,97757.03
2023-01-29T08:57:04.430Z,97756.25
2023-01-29T08:59:12.826Z,97761.50
2023-01-29T09:01:17.809Z,97767.91
2023-01-29T09:03:22.592Z,97764.47
2023-01-29T09:05:27.230Z,97772.91
2023-01-29T09:07:32.692Z,97766.63
2023-01-29T09:09:38.416Z,97764.84
2023-01-29T09:11:43.375Z,97769.25
2023-01-29T09:13:47.977Z,97764.25
2023-01-29T09:15:55.875Z,97771.31
2023-01-29T09:18:05.401Z,97775.75
2023-01-29T09:20:11.536Z,97778.59
2023-01-29T09:22:16.326Z,97784.63
2023-01-29T09:24:21.188Z,97783.00
2023-01-29T09:26:25.846Z,97782.56
2023-01-29T09:28:31.128Z,97783.41
2023-01-29T09:30:37.900Z,97786.00
2023-01-29T09:32:54.447Z,97792.03
2023-01-29T09:34:59.597Z,97790.81
2023-01-29T09:37:04.256Z,97796.63
2023-01-29T09:39:08.934Z,97801.66
2023-01-29T09:41:29.652Z,97789.00
2023-01-29T09:43:45.721Z,97786.16
2023-01-29T09:45:57.297Z,97786.16
2023-01-29T09:48:08.432Z,97782.75
2023-01-29T09:50:20.412Z,97789.78
2023-01-29T09:52:28.415Z,97794.78
2023-01-29T09:54:38.590Z,97784.31
2023-01-29T09:56:45.008Z,97789.38
2023-01-29T09:58:50.200Z,97785.94
2023-01-29T10:01:02.852Z,97785.72
2023-01-29T10:03:26.516Z,97777.84
2023-01-29T10:05:48.733Z,97783.91
2023-01-29T10:08:22.917Z,97775.81
2023-01-29T10:10:40.714Z,97781.06
2023-01-29T10:13:10.720Z,97779.47
2023-01-29T10:15:31.126Z,97775.00
2023-01-29T10:18:01.998Z,97775.22
2023-01-29T10:20:28.782Z,97771.81
2023-01-29T10:23:01.587Z,97768.19
2023-01-29T10:25:08.504Z,97771.16
2023-01-29T10:27:18.767Z,97772.16
2023-01-29T10:29:24.794Z,97773.56
2023-01-29T10:31:36.492Z,97767.53
2023-01-29T10:33:54.231Z,97772.75
2023-01-29T10:36:13.733Z,97755.22
2023-01-29T10:38:31.147Z,97762.28
2023-01-29T10:40:41.878Z,97757.59
2023-01-29T10:42:52.831Z,97759.22
2023-01-29T10:45:12.127Z,97754.78
2023-01-29T10:47:40.596Z,97756.59
2023-01-29T10:50:03.458Z,97752.16
2023-01-29T10:52:32.142Z,97745.31
2023-01-29T10:54:52.941Z,97751.13
2023-01-29T10:57:09.710Z,97748.53
2023-01-29T10:59:30.578Z,97749.09
2023-01-29T11:01:35.402Z,97742.25
2023-01-29T11:03:40.207Z,97735.19
2023-01-29T11:05:48.066Z,97736.19
2023-01-29T11:08:04.784Z,97740.66
2023-01-29T11:10:14.654Z,97742.25
2023-01-29T11:12:23.710Z,97743.06
2023-01-29T11:14:32.881Z,97732.78
2023-01-29T11:16:43.923Z,97731.78
2023-01-29T11:18:58.443Z,97734.41
2023-01-29T11:21:05.536Z,97730.50
2023-01-29T11:23:28.226Z,97726.09
2023-01-29T11:25:33.846Z,97719.63
2023-01-29T11:27:45.584Z,97715.38
2023-01-29T11:29:51.311Z,97718.00
2023-01-29T11:31:56.711Z,97711.75
2023-01-29T11:34:06.854Z,97699.44
2023-01-29T11:36:25.058Z,97691.34
2023-01-29T11:38:32.598Z,97678.81
2023-01-29T11:40:42.744Z,97671.31
2023-01-29T11:42:48.192Z,97658.00
2023-01-29T11:44:52.910Z,97648.97
2023-01-29T11:46:58.534Z,97637.09
2023-01-29T11:49:19.147Z,97647.03
2023-01-29T11:51:28.656Z,97642.69
2023-01-29T11:53:43.187Z,97646.41
2023-01-29T11:55:51.742Z,97648.06
2023-01-29T11:58:01.042Z,97650.56
2023-01-29T12:00:10.165Z,97652.63
2023-01-29T12:02:26.956Z,97648.63
2023-01-29T12:04:32.187Z,97653.63
2023-01-29T12:06:39.392Z,97654.44
2023-01-29T12:08:46.865Z,97650.41
2023-01-29T12:10:51.910Z,97654.88
2023-01-29T12:13:07.995Z,97656.31
2023-01-29T12:15:25.386Z,97675.25
2023-01-29T12:17:36.234Z,97681.84
2023-01-29T12:19:45.600Z,97674.16
2023-01-29T12:21:53.971Z,97679.16
2023-01-29T12:24:06.796Z,97668.47
2023-01-29T12:26:16.045Z,97667.22
2023-01-29T12:28:33.525Z,97665.19
2023-01-29T12:30:47.346Z,97656.53
2023-01-29T12:33:00.324Z,97655.50
2023-01-29T12:35:12.110Z,97648.22
2023-01-29T12:37:24.002Z,97648.78
2023-01-29T12:39:32.641Z,97637.53
2023-01-29T12:41:45.978Z,97632.28
2023-01-29T12:43:55.035Z,97625.75
2023-01-29T12:46:02.640Z,97615.13
2023-01-29T12:48:11.653Z,97601.09
2023-01-29T12:50:22.879Z,97604.75
2023-01-29T12:52:39.791Z,97596.31
2023-01-29T12:54:54.208Z,97586.66
2023-01-29T12:57:03.552Z,97583.81
2023-01-29T12:59:17.887Z,97573.09
2023-01-29T13:01:28.695Z,97568.44
2023-01-29T13:03:42.305Z,97573.66
2023-01-29T13:05:51.054Z,97575.13
2023-01-29T13:08:01.398Z,97570.56
2023-01-29T13:10:15.376Z,97572.63
2023-01-29T13:12:23.380Z,97563.38
2023-01-29T13:14:33.990Z,97568.25
2023-01-29T13:16:43.490Z,97573.47
2023-01-29T13:18:51.681Z,97571.69
2023-01-29T13:20:57.148Z,97579.53
2023-01-29T13:23:21.545Z,97571.69
2023-01-29T13:25:29.035Z,97566.22
2023-01-29T13:27:36.301Z,97571.47
2023-01-29T13:29:41.077Z,97577.25
2023-01-29T13:31:51.441Z,97573.41
2023-01-29T13:33:58.793Z,97570.94
2023-01-29T13:36:03.680Z,97567.50
2023-01-29T13:38:09.714Z,97565.25
2023-01-29T13:40:24.788Z,97566.81
2023-01-29T13:42:41.466Z,97559.56
2023-01-29T13:44:51.296Z,97561.28
2023-01-29T13:47:01.527Z,97560.81
2023-01-29T13:49:06.264Z,97553.91
2023-01-29T13:51:17.866Z,97544.78
2023-01-29T13:53:26.541Z,97548.78
2023-01-29T13:55:34.402Z,97544.34
2023-01-29T13:57:56.894Z,97535.47
2023-01-29T14:00:01.732Z,97533.97
2023-01-29T14:02:22.002Z,97528.94
2023-01-29T14:04:31.067Z,97533.41
2023-01-29T14:06:45.839Z,97541.50
2023-01-29T14:08:50.939Z,97536.03
2023-01-29T14:11:36.392Z,97533.88
2023-01-29T14:13:45.133Z,97544.44
2023-01-29T14:16:24.759Z,97548.13
2023-01-29T14:18:30.435Z,97552.69
2023-01-29T14:20:45.847Z,97550.84
2023-01-29T14:22:59.638Z,97559.53
2023-01-29T14:25:08.302Z,97562.47
2023-01-29T14:27:25.396Z,97568.28
2023-01-29T14:29:39.446Z,97563.63
2023-01-29T14:31:46.620Z,97558.16
2023-01-29T14:33:51.889Z,97555.09
2023-01-29T14:35:58.970Z,97556.69
2023-01-29T14:38:08.116Z,97554.84
2023-01-29T14:40:23.563Z,97543.59
2023-01-29T14:42:31.516Z,97539.91
2023-01-29T14:45:26.321Z,97540.59
2023-01-29T14:47:56.460Z,97536.41
2023-01-29T14:50:03.368Z,97533.31
2023-01-29T14:52:13.184Z,97529.66
2023-01-29T14:54:28.014Z,97530.72
2023-01-29T14:56:38.383Z,97526.72
2023-01-29T14:58:48.069Z,97532.97
2023-01-29T15:00:58.980Z,97531.94
2023-01-29T15:03:06.612Z,97525.47
2023-01-29T15:05:17.037Z,97520.00
2023-01-29T15:07:30.745Z,97526.81
2023-01-29T15:09:42.960Z,97525.78
2023-01-29T15:11:55.407Z,97534.47
2023-01-29T15:14:11.335Z,97538.69
2023-01-29T15:16:23.731Z,97537.44
2023-01-29T15:18:34.653Z,97532.19
2023-01-29T15:20:41.273Z,97530.13
2023-01-29T15:22:46.605Z,97537.75
2023-01-29T15:25:07.480Z,97531.97
2023-01-29T15:27:16.838Z,97530.13
2023-01-29T15:29:27.558Z,97530.94
2023-01-29T15:31:35.814Z,97532.75
2023-01-29T15:33:41.275Z,97533.56
2023-01-29T15:35:48.308Z,97535.81
2023-01-29T15:38:01.581Z,97530.72
2023-01-29T15:40:14.951Z,97523.31
2023-01-29T15:42:23.687Z,97528.19
2023-01-29T15:44:28.460Z,97528.88
2023-01-29T15:46:39.019Z,97526.69
2023-01-29T15:48:46.961Z,97532.16
2023-01-29T15:50:56.706Z,97527.16
2023-01-29T15:53:06.352Z,97533.19
2023-01-29T15:55:16.173Z,97527.72
2023-01-29T15:57:27.524Z,97520.63
2023-01-29T15:59:35.986Z,97530.91
2023-01-29T16:01:43.528Z,97542.19
2023-01-29T16:03:49.120Z,97536.38
2023-01-29T16:05:55.161Z,97542.66
2023-01-29T16:08:00.624Z,97546.28
2023-01-29T16:10:06.672Z,97545.72
2023-01-29T16:12:15.745Z,97541.94
2023-01-29T16:14:25.621Z,97536.34
2023-01-29T16:16:31.075Z,97532.59
2023-01-29T16:18:54.190Z,97534.84
2023-01-29T16:21:06.665Z,97543.16
2023-01-29T16:23:21.082Z,97534.75
2023-01-29T16:25:26.948Z,97541.56
2023-01-29T16:27:33.863Z,97549.41
2023-01-29T16:29:39.063Z,97550.47
2023-01-29T16:31:46.669Z,97549.06
2023-01-29T16:33:54.113Z,97554.88
2023-01-29T16:35:59.334Z,97548.63
2023-01-29T16:38:07.888Z,97548.63
2023-01-29T16:40:19.385Z,97545.22
2023-01-29T16:42:32.341Z,97554.09
2023-01-29T16:44:38.987Z,97552.63
2023-01-29T16:46:49.235Z,97552.41
2023-01-29T16:48:57.095Z,97553.41
2023-01-29T16:51:08.168Z,97555.69
2023-01-29T16:53:16.024Z,97563.78
2023-01-29T16:55:25.780Z,97563.63
2023-01-29T16:57:35.550Z,97556.22
2023-01-29T16:59:42.975Z,97557.47
2023-01-29T17:01:48.363Z,97553.25
2023-01-29T17:04:03.496Z,97566.56
2023-01-29T17:06:12.843Z,97562.66
2023-01-29T17:08:24.091Z,97566.75
2023-01-29T17:10:31.021Z,97566.19
2023-01-29T17:12:38.875Z,97570.19
2023-01-29T17:14:56.282Z,97572.34
2023-01-29T17:17:07.020Z,97569.28
2023-01-29T17:19:21.739Z,97570.66
2023-01-29T17:21:26.770Z,97569.41
2023-01-29T17:23:31.472Z,97570.22
2023-01-29T17:25:36.121Z,97571.22
2023-01-29T17:27:44.337Z,97574.06
2023-01-29T17:29:49.100Z,97562.81
2023-01-29T17:31:55.025Z,97570.84
2023-01-29T17:34:00.536Z,97567.56
2023-01-29T17:36:08.412Z,97566.19
2023-01-29T17:38:24.339Z,97573.59
2023-01-29T17:40:38.605Z,97570.19
2023-01-29T17:42:43.388Z,97566.50
2023-01-29T17:44:48.070Z,97567.56
2023-01-29T17:46:52.926Z,97571.19
2023-01-29T17:48:57.689Z,97569.09
2023-01-29T17:51:05.742Z,97572.38
2023-01-29T17:53:13.108Z,97575.06
2023-01-29T17:55:18.298Z,97572.88
2023-01-29T17:57:23.184Z,97577.75
2023-01-29T17:59:31.303Z,97572.38
2023-01-29T18:01:36.040Z,97574.44
2023-01-29T18:03:41.323Z,97574.50
2023-01-29T18:05:47.921Z,97573.69
2023-01-29T18:07:54.806Z,97570.06
2023-01-29T18:10:02.135Z,97569.47
2023-01-29T18:12:06.915Z,97564.91
2023-01-29T18:14:14.390Z,97564.56
2023-01-29T18:16:22.033Z,97572.03
2023-01-29T18:18:28.145Z,97569.63
2023-01-29T18:20:36.821Z,97569.06
2023-01-29T18:22:41.524Z,97560.59
2023-01-29T18:24:46.241Z,97567.44
2023-01-29T18:26:53.998Z,97559.81
2023-01-29T18:28:59.208Z,97564.44
2023-01-29T18:31:04.528Z,97556.47
2023-01-29T18:33:09.327Z,97562.34
2023-01-29T18:35:17.610Z,97568.81
2023-01-29T18:37:22.854Z,97568.81
2023-01-29T18:39:27.629Z,97569.03
2023-01-29T18:41:32.323Z,97567.06
2023-01-29T18:43:40.102Z,97564.28
2023-01-29T18:45:45.336Z,97565.94
2023-01-29T18:47:50.098Z,97563.84
2023-01-29T18:49:55.286Z,97565.94
2023-01-29T18:52:00.065Z,97553.28
2023-01-29T18:54:04.773Z,97552.84
2023-01-29T18:56:10.509Z,97549.00
2023-01-29T18:58:25.991Z,97553.66
2023-01-29T19:00:36.599Z,97557.69
2023-01-29T19:02:43.206Z,97559.31
2023-01-29T19:04:48.376Z,97550.69
2023-01-29T19:06:53.036Z,97562.72
2023-01-29T19:08:57.817Z,97556.91
2023-01-29T19:11:05.614Z,97559.34
2023-01-29T19:13:11.162Z,97549.31
2023-01-29T19:15:16.436Z,97553.34
2023-01-29T19:17:24.542Z,97557.78
2023-01-29T19:19:29.870Z,97555.50
2023-01-29T19:21:36.857Z,97552.47
2023-01-29T19:23:42.253Z,97554.66
2023-01-29T19:25:47.141Z,97557.44
2023-01-29T19:27:52.173Z,97558.63
2023-01-29T19:29:56.908Z,97561.59
2023-01-29T19:32:01.583Z,97552.13
2023-01-29T19:34:09.321Z,97552.78
2023-01-29T19:36:14.178Z,97552.00
2023-01-29T19:38:21.278Z,97544.72
2023-01-29T19:40:26.493Z,97540.75
2023-01-29T19:42:31.465Z,97536.13
2023-01-29T19:44:36.165Z,97528.91
2023-01-29T19:46:41.373Z,97528.09
2023-01-29T19:48:46.152Z,97530.91
2023-01-29T19:50:58.103Z,97523.72
2023-01-29T19:53:02.841Z,97526.75
2023-01-29T19:55:09.553Z,97519.78
2023-01-29T19:57:14.271Z,97519.81
2023-01-29T19:59:31.520Z,97531.50
2023-01-29T20:01:36.358Z,97518.06
2023-01-29T20:03:42.005Z,97519.44
2023-01-29T20:05:46.739Z,97521.47
2023-01-29T20:07:54.322Z,97518.44
2023-01-29T20:09:58.989Z,97512.41
2023-01-29T20:12:03.743Z,97514.22
2023-01-29T20:14:08.454Z,97510.16
2023-01-29T20:16:13.487Z,97515.19
2023-01-29T20:18:18.769Z,97518.81
2023-01-29T20:20:23.804Z,97519.03
2023-01-29T20:22:32.540Z,97520.63
2023-01-29T20:24:42.442Z,97524.59
2023-01-29T20:26:47.479Z,97529.47
2023-01-29T20:28:52.440Z,97522.97
2023-01-29T20:30:59.203Z,97529.25
2023-01-29T20:33:05.191Z,97536.09
2023-01-29T20:35:11.693Z,97524.28
2023-01-29T20:37:16.501Z,97529.38
2023-01-29T20:39:21.289Z,97532.22
2023-01-29T20:41:28.908Z,97519.81
2023-01-29T20:43:33.635Z,97524.06
2023-01-29T20:45:38.381Z,97515.47
2023-01-29T20:47:43.076Z,97511.13
2023-01-29T20:49:47.914Z,97513.16
2023-01-29T20:51:52.657Z,97510.72
2023-01-29T20:53:57.377Z,97516.75
2023-01-29T20:56:04.281Z,97508.50
2023-01-29T20:58:12.001Z,97517.72
2023-01-29T21:00:18.214Z,97520.44
2023-01-29T21:02:23.556Z,97527.81
2023-01-29T21:04:28.429Z,97521.66
2023-01-29T21:06:33.491Z,97519.38
2023-01-29T21:08:38.447Z,97517.09
2023-01-29T21:10:45.156Z,97511.81
2023-01-29T21:12:49.778Z,97508.56
2023-01-29T21:14:57.071Z,97517.41
2023-01-29T21:17:01.982Z,97510.44
2023-01-29T21:19:06.709Z,97507.91
2023-01-29T21:21:11.386Z,97510.50
2023-01-29T21:23:16.069Z,97512.53
2023-01-29T21:25:21.493Z,97503.50
2023-01-29T21:27:27.672Z,97504.50
2023-01-29T21:29:32.511Z,97503.91
2023-01-29T21:31:40.265Z,97503.34
2023-01-29T21:33:45.351Z,97501.31
2023-01-29T21:35:59.418Z,97504.34
2023-01-29T21:38:04.090Z,97511.16
2023-01-29T21:40:10.560Z,97495.47
2023-01-29T21:42:27.733Z,97492.44
2023-01-29T21:44:33.609Z,97489.00
2023-01-29T21:46:41.175Z,97485.97
2023-01-29T21:48:45.965Z,97492.44
2023-01-29T21:50:51.199Z,97483.63
2023-01-29T21:52:55.902Z,97489.84
2023-01-29T21:55:00.676Z,97484.41
2023-01-29T21:57:07.572Z,97478.38
2023-01-29T21:59:12.387Z,97483.22
2023-01-29T22:01:37.617Z,97476.97
2023-01-29T22:03:47.095Z,97473.31
2023-01-29T22:05:53.444Z,97467.88
2023-01-29T22:07:58.713Z,97466.09
2023-01-29T22:10:03.662Z,97463.25
2023-01-29T22:12:11.039Z,97464.84
2023-01-29T22:14:18.303Z,97464.03
2023-01-29T22:16:23.112Z,97466.66
2023-01-29T22:18:27.860Z,97465.28
2023-01-29T22:20:36.758Z,97462.66
2023-01-29T22:22:41.616Z,97458.06
2023-01-29T22:24:46.751Z,97448.47
2023-01-29T22:26:51.452Z,97448.31
2023-01-29T22:28:56.232Z,97444.75
2023-01-29T22:31:04.280Z,97444.81
2023-01-29T22:33:10.537Z,97440.06
2023-01-29T22:35:15.195Z,97444.75
2023-01-29T22:37:22.463Z,97436.41
2023-01-29T22:39:27.300Z,97433.63
2023-01-29T22:41:33.748Z,97426.84
2023-01-29T22:43:38.623Z,97435.09
2023-01-29T22:45:43.321Z,97431.72
2023-01-29T22:47:48.172Z,97425.09
2023-01-29T22:49:52.858Z,97427.34
2023-01-29T22:52:09.840Z,97423.34
2023-01-29T22:54:17.907Z,97430.81
2023-01-29T22:56:25.408Z,97440.59
2023-01-29T22:58:30.368Z,97424.94
2023-01-29T23:00:35.088Z,97424.94
2023-01-29T23:02:39.891Z,97422.56
2023-01-29T23:04:44.769Z,97423.38
2023-01-29T23:06:49.449Z,97415.19
2023-01-29T23:08:54.475Z,97416.78
2023-01-29T23:11:14.367Z,97420.41
2023-01-29T23:13:19.593Z,97420.19
2023-01-29T23:15:24.275Z,97424.84
2023-01-29T23:17:29.033Z,97414.00
2023-01-29T23:19:33.664Z,97421.47
2023-01-29T23:21:38.440Z,97419.28
2023-01-29T23:23:45.040Z,97417.25
2023-01-29T23:26:02.143Z,97411.38
2023-01-29T23:28:09.442Z,97415.19
2023-01-29T23:30:15.060Z,97407.56
2023-01-29T23:32:21.766Z,97409.38
2023-01-29T23:34:26.473Z,97404.78
2023-01-29T23:36:31.242Z,97397.81
2023-01-29T23:38:36.487Z,97392.66
2023-01-29T23:40:41.131Z,97391.69
2023-01-29T23:42:45.799Z,97384.31
2023-01-29T23:44:53.020Z,97379.97
2023-01-29T23:46:58.346Z,97373.56
2023-01-29T23:49:03.177Z,97380.00
2023-01-29T23:51:08.152Z,97380.81
2023-01-29T23:53:13.029Z,97378.34
2023-01-29T23:55:18.181Z,97371.56
2023-01-29T23:57:22.810Z,97371.91
2023-01-29T23:59:29.873Z,97370.13
